Latest Weather Observations for East Sale

IDV60801

Issued at 8:02 pm EST Sunday 2 August 2015 (issued every 30 minutes, with the page automatically refreshed every 10 minutes)

About weather observations | Map of weather stations | Latest weather observations for VIC | Other Formats
Station Details ID: 085072 Name: EAST SALE AIRPORT Lat: -38.12 Lon: 147.13 Height: 4.6 m
Data from the previous 72 hours. | See also: Recent months at East Sale
Date/Time
EST
Temp
°C
App
Temp
°C
Dew
Point
Rel
Hum
%
Delta-T
°C
Wind Press
QNH
hPa
Press
MSL
hPa
Rain
since 9 am
mm
Dir
 
Spd
km/h
Gust
km/h
Spd
kts
Gust
kts
02/08:00pm 10.0 4.6 6.3 78 1.7 W 24 32 13 17 1010.1 1010.1 0.0
02/07:30pm 10.2 5.1 5.8 74 2.0 WSW 22 30 12 16 1010.1 1010.1 0.0
02/07:00pm 10.5 5.4 3.1 60 3.2 WNW 19 24 10 13 1009.4 1009.4 0.0
02/06:30pm 11.4 4.9 2.4 54 3.9 NW 26 33 14 18 1008.7 1008.7 0.0
02/06:00pm 11.2 3.5 2.2 54 3.9 NW 32 41 17 22 1008.2 1008.2 0.0
02/05:30pm 11.2 3.3 2.2 54 3.8 NNW 33 43 18 23 1007.9 1007.9 0.0
02/05:03pm 12.1 4.8 2.3 51 4.2 NW 30 48 16 26 1007.9 1007.9 0.0
02/05:00pm 12.2 4.5 2.4 51 4.3 NW 32 48 17 26 1008.0 1008.0 0.0
02/04:30pm 13.1 5.1 1.8 46 4.9 NW 33 43 18 23 1007.5 1007.5 0.0
02/04:00pm 13.0 3.0 2.0 47 4.8 WNW 44 65 24 35 1007.8 1007.8 0.0
02/03:30pm 13.6 3.8 2.2 46 5.0 W 43 63 23 34 1007.9 1007.9 0.0
02/03:25pm 13.5 5.2 2.1 46 5.0 W 35 56 19 30 1008.0 1008.0 0.0
02/03:00pm 13.9 6.9 1.9 44 5.2 W 28 39 15 21 1007.9 1007.9 0.0
02/02:30pm 14.2 6.6 3.1 47 5.0 NW 32 43 17 23 1007.6 1007.6 0.0
02/02:19pm 13.9 6.0 1.2 42 5.4 NW 32 50 17 27 1007.6 1007.6 0.0
02/02:00pm 13.5 4.7 1.5 44 5.2 WNW 37 46 20 25 1007.8 1007.8 0.0
02/01:42pm 13.5 5.9 3.8 52 4.4 NW 33 54 18 29 1007.8 1007.8 0.0
02/01:30pm 13.0 4.1 3.1 51 4.4 WNW 39 48 21 26 1007.9 1007.9 0.0
02/01:00pm 12.7 3.5 3.4 53 4.2 W 41 54 22 29 1009.0 1009.0 0.0
02/12:30pm 12.3 4.2 3.3 54 4.0 W 35 50 19 27 1009.7 1009.7 0.0
02/12:00pm 11.7 4.1 3.0 55 3.8 W 32 43 17 23 1010.2 1010.2 0.0
02/11:30am 11.8 6.5 6.7 71 2.4 WNW 24 32 13 17 1010.7 1010.7 0.0
02/11:00am 10.9 6.9 5.0 67 2.7 NW 15 20 8 11 1011.2 1011.2 0.0
02/10:30am 9.8 6.1 6.2 78 1.7 NNW 15 19 8 10 1011.7 1011.7 0.0
02/10:00am 9.5 5.4 6.4 81 1.4 NNW 17 19 9 10 1011.7 1011.7 0.0
02/09:30am 8.0 4.2 5.6 85 1.1 NNW 15 19 8 10 1012.1 1012.1 0.0
02/09:00am 7.7 4.7 6.0 89 0.8 NNW 11 15 6 8 1012.5 1012.5 0.6
02/08:30am 6.9 3.8 5.5 91 0.6 N 11 15 6 8 1013.0 1013.0 0.6
02/08:00am 6.2 2.6 5.2 93 0.4 NNW 13 15 7 8 1013.4 1013.4 0.6
02/07:30am 6.0 3.2 5.0 93 0.4 NW 9 9 5 5 1013.3 1013.3 0.4
02/07:00am 6.0 3.2 5.1 94 0.4 NNW 9 13 5 7 1013.2 1013.2 0.2
02/06:30am 5.7 3.5 5.1 96 0.3 WSW 6 7 3 4 1013.1 1013.1 0.2
02/06:00am 5.7 3.8 5.0 95 0.3 SSW 4 7 2 4 1012.8 1012.8 0.2
02/05:30am 5.9 4.8 5.2 95 0.3 CALM 0 0 0 0 1012.8 1012.8 0.2
02/05:00am 5.6 4.5 4.9 95 0.3 CALM 0 0 0 0 1013.0 1013.0 0.2
02/04:30am 6.1 5.1 5.4 95 0.3 CALM 0 0 0 0 1013.1 1013.1 0.2
02/04:00am 6.1 5.1 5.4 95 0.3 CALM 0 0 0 0 1013.4 1013.4 0.2
02/03:30am 6.1 5.1 5.4 95 0.3 CALM 0 0 0 0 1014.2 1014.2 0.2
02/03:00am 5.8 4.7 4.9 94 0.4 CALM 0 0 0 0 1014.1 1014.1 0.2
02/02:30am 6.0 4.9 5.0 93 0.4 CALM 0 0 0 0 1014.7 1014.7 0.2
02/02:00am 6.2 4.3 4.8 91 0.6 SW 4 6 2 3 1015.0 1015.0 0.2
02/01:30am 6.3 4.4 4.8 90 0.7 SSW 4 7 2 4 1015.3 1015.3 0.2
02/01:00am 6.6 4.7 5.1 90 0.7 W 4 7 2 4 1015.8 1015.8 0.2
02/12:30am 6.5 4.0 4.8 89 0.7 N 7 9 4 5 1015.2 1015.2 0.2
02/12:00am 7.0 4.5 5.0 87 0.9 NNW 7 9 4 5 1015.7 1015.7 0.2
 
Date/Time
EST
Temp
°C
App
Temp
°C
Dew
Point
Rel
Hum
%
Delta-T
°C
Wind Press
QNH
hPa
Press
MSL
hPa
Rain
since 9 am
mm
Dir
 
Spd
km/h
Gust
km/h
Spd
kts
Gust
kts
01/11:30pm 7.3 4.9 5.4 88 0.8 N 7 9 4 5 1015.6 1015.6 0.2
01/11:00pm 7.4 5.0 5.4 87 0.9 WNW 7 9 4 5 1015.9 1015.9 0.2
01/10:30pm 7.3 5.1 5.3 87 0.9 N 6 7 3 4 1015.8 1015.8 0.2
01/10:00pm 7.5 4.8 5.5 87 0.9 NNW 9 11 5 6 1016.3 1016.3 0.2
01/09:30pm 7.7 5.3 5.3 85 1.1 N 7 9 4 5 1016.2 1016.2 0.2
01/09:00pm 7.7 5.5 5.5 86 1.0 NNE 6 7 3 4 1016.0 1016.0 0.2
01/08:30pm 8.3 5.9 4.5 77 1.7 N 6 7 3 4 1016.4 1016.4 0.2
01/08:00pm 8.4 6.4 4.4 76 1.8 WNW 4 7 2 4 1016.2 1016.2 0.2
01/07:30pm 8.5 6.0 4.7 77 1.7 NW 7 9 4 5 1016.4 1016.4 0.2
01/07:00pm 8.6 6.2 4.4 75 1.8 NNW 6 7 3 4 1016.2 1016.2 0.2
01/06:30pm 9.0 6.1 4.4 73 2.0 W 9 13 5 7 1015.6 1015.6 0.2
01/06:00pm 9.0 5.8 5.0 76 1.8 WNW 11 15 6 8 1015.3 1015.3 0.2
01/05:30pm 9.4 5.5 5.2 75 1.9 WSW 15 19 8 10 1014.7 1014.7 0.2
01/05:00pm 9.7 6.1 5.1 73 2.1 W 13 19 7 10 1014.6 1014.6 0.2
01/04:30pm 9.9 5.7 5.7 75 1.9 WSW 17 24 9 13 1014.4 1014.4 0.2
01/04:00pm 10.2 5.6 5.8 74 2.0 WSW 19 28 10 15 1014.3 1014.3 0.2
01/03:30pm 10.1 5.5 5.7 74 2.0 WSW 19 26 10 14 1013.9 1013.9 0.2
01/03:00pm 10.2 5.4 5.8 74 2.0 WSW 20 33 11 18 1013.6 1013.6 0.2
01/02:30pm 10.3 4.7 5.5 72 2.2 WSW 24 35 13 19 1013.1 1013.1 0.2
01/02:00pm 9.9 4.8 5.9 76 1.8 WSW 22 35 12 19 1013.1 1013.1 0.2
01/01:30pm 9.6 2.5 5.4 75 1.9 WSW 32 44 17 24 1013.3 1013.3 0.2
01/01:00pm 10.1 5.2 7.0 81 1.5 WSW 22 32 12 17 1013.0 1013.0 0.2
01/12:30pm 10.0 3.9 6.7 80 1.5 WSW 28 44 15 24 1013.0 1013.0 0.2
01/12:00pm 10.4 2.9 6.4 76 1.9 WSW 35 46 19 25 1012.9 1012.9 0.2
01/11:30am 10.6 4.0 8.4 86 1.1 W 33 50 18 27 1012.5 1012.5 0.2
01/11:00am 10.6 4.1 8.2 85 1.2 WSW 32 54 17 29 1012.2 1012.2 0.2
01/10:46am 11.7 5.6 9.6 87 1.1 WSW 32 54 17 29 1011.8 1011.8 0.2
01/10:30am 12.1 7.6 10.0 87 1.1 WSW 24 33 13 18 1011.5 1011.5 0.2
01/10:00am 12.0 8.3 10.1 88 1.0 WSW 20 28 11 15 1010.5 1010.5 0.0
01/09:30am 12.2 7.9 9.2 82 1.5 W 22 30 12 16 1009.9 1009.9 0.0
01/09:00am 13.4 8.1 8.5 72 2.5 W 26 37 14 20 1009.2 1009.2 0.0
01/08:30am 13.3 9.1 8.2 71 2.5 W 20 26 11 14 1008.7 1008.7 0.0
01/08:00am 13.4 9.1 8.0 70 2.7 W 20 26 11 14 1008.2 1008.2 0.0
01/07:30am 12.4 7.3 7.7 73 2.3 WNW 24 35 13 19 1007.7 1007.7 0.0
01/07:00am 8.0 6.0 6.1 88 0.9 ESE 6 9 3 5 1007.2 1007.2 0.0
01/06:30am 7.8 5.2 6.1 89 0.8 SSE 9 13 5 7 1007.1 1007.1 0.0
01/06:00am 6.5 3.7 5.1 91 0.6 ENE 9 11 5 6 1007.3 1007.3 0.0
01/05:30am 5.3 2.8 3.8 90 0.6 SE 6 7 3 4 1007.6 1007.6 0.0
01/05:00am 5.9 3.2 3.7 86 0.9 NNE 7 13 4 7 1008.2 1008.2 0.0
01/04:30am 4.4 0.8 2.9 90 0.6 ENE 11 13 6 7 1008.4 1008.4 0.0
01/04:00am 4.3 0.7 2.7 89 0.6 N 11 15 6 8 1008.9 1008.9 0.0
01/03:30am 3.4 -1.1 2.4 93 0.4 NE 15 19 8 10 1009.9 1009.9 0.0
01/03:00am 3.0 -1.6 1.7 91 0.5 NE 15 20 8 11 1010.9 1010.9 0.0
01/02:30am 4.6 1.2 2.1 84 1.0 WSW 9 17 5 9 1011.8 1011.8 0.0
01/02:00am 4.9 -0.2 2.8 86 0.9 WSW 19 22 10 12 1012.7 1012.7 0.0
01/01:30am 4.4 0.0 2.9 90 0.6 WNW 15 20 8 11 1013.1 1013.1 0.0
01/01:00am 2.6 -1.1 2.3 98 0.1 WSW 11 13 6 7 1013.2 1013.2 0.0
01/12:30am 1.9 -1.9 1.6 98 0.1 WNW 11 15 6 8 1013.1 1013.1 0.0
01/12:00am 1.5 -1.5 1.1 97 0.2 WNW 6 9 3 5 1013.0 1013.0 0.0
 
Date/Time
EST
Temp
°C
App
Temp
°C
Dew
Point
Rel
Hum
%
Delta-T
°C
Wind Press
QNH
hPa
Press
MSL
hPa
Rain
since 9 am
mm
Dir
 
Spd
km/h
Gust
km/h
Spd
kts
Gust
kts
31/11:30pm 1.4 -1.6 0.8 96 0.2 SW 6 7 3 4 1013.3 1013.3 0.0
31/11:00pm 3.5 0.9 3.1 97 0.2 SSE 6 11 3 6 1013.6 1013.6 0.0
31/10:30pm 3.2 1.6 2.3 94 0.4 CALM 0 4 0 2 1014.0 1014.0 0.0
31/10:00pm 4.2 1.4 3.2 93 0.4 NE 7 9 4 5 1014.3 1014.3 0.0
31/09:30pm 4.0 0.8 2.8 92 0.5 ENE 9 11 5 6 1015.0 1015.0 0.0
31/09:00pm 4.5 0.5 3.0 90 0.6 ENE 13 15 7 8 1015.6 1015.6 0.0
31/08:30pm 5.4 3.4 4.4 93 0.4 ENE 4 7 2 4 1016.1 1016.1 0.0
31/08:00pm 5.1 2.6 3.8 91 0.5 ENE 6 9 3 5 1016.5 1016.5 0.0
31/07:30pm 5.7 2.4 4.5 92 0.5 NE 11 15 6 8 1016.9 1016.9 0.0
31/07:00pm 6.1 2.8 4.6 90 0.6 NE 11 13 6 7 1016.9 1016.9 0.0
31/06:30pm 6.0 2.7 4.3 89 0.7 ENE 11 13 6 7 1016.6 1016.6 0.0
31/06:00pm 6.3 2.0 3.5 82 1.2 E 15 17 8 9 1016.1 1016.1 0.0
31/05:30pm 7.2 3.8 4.2 81 1.3 E 11 11 6 6 1016.4 1016.4 0.0
31/05:00pm 9.5 5.9 4.9 73 2.1 ENE 13 15 7 8 1016.4 1016.4 0.0
31/04:30pm 11.2 7.4 5.7 69 2.5 E 15 19 8 10 1016.6 1016.6 0.0
31/04:00pm 12.8 10.3 5.0 59 3.6 N 7 9 4 5 1016.9 1016.9 0.0
31/03:30pm 13.3 10.8 3.7 52 4.3 NE 6 9 3 5 1017.2 1017.2 0.0
31/03:00pm 13.1 10.7 4.3 55 4.0 WSW 6 9 3 5 1017.5 1017.5 0.0
31/02:30pm 12.6 9.5 3.5 54 4.1 W 9 13 5 7 1017.6 1017.6 0.0
31/02:00pm 13.1 9.3 4.0 54 4.1 NNW 13 20 7 11 1018.2 1018.2 0.0
31/01:30pm 12.5 8.9 3.2 53 4.1 WNW 11 22 6 12 1018.8 1018.8 0.0
31/01:00pm 13.0 9.3 4.4 56 3.9 W 13 24 7 13 1019.2 1019.2 0.0
31/12:30pm 12.7 8.3 4.7 58 3.7 WSW 17 26 9 14 1020.0 1020.0 0.0
31/12:00pm 12.1 7.8 5.3 63 3.1 W 17 24 9 13 1020.3 1020.3 0.0
31/11:30am 11.7 8.4 6.6 71 2.4 WSW 13 17 7 9 1020.7 1020.7 0.0
31/11:00am 10.9 6.8 6.3 73 2.1 W 17 20 9 11 1021.3 1021.3 0.0
31/10:30am 10.3 7.7 5.9 74 2.0 NNW 9 13 5 7 1021.3 1021.3 0.0
31/10:00am 10.1 6.4 6.1 76 1.8 WNW 15 19 8 10 1021.4 1021.4 0.0
31/09:30am 8.8 5.0 5.7 81 1.4 W 15 20 8 11 1021.3 1021.3 0.0
31/09:00am 8.9 6.8 6.7 86 1.0 NW 7 9 4 5 1021.0 1021.0 0.0
31/08:30am 7.3 5.0 5.9 91 0.6 NW 7 9 4 5 1020.9 1020.9 0.0
31/08:00am 5.2 2.7 4.8 97 0.2 NNW 7 11 4 6 1020.6 1020.6 0.0
31/07:30am 4.5 1.4 3.8 95 0.3 WNW 9 11 5 6 1020.3 1020.3 0.0
31/07:00am 4.5 1.0 3.6 94 0.4 W 11 13 6 7 1020.0 1020.0 0.0
31/06:30am 5.0 1.6 3.8 92 0.5 W 11 15 6 8 1019.6 1019.6 0.0
31/06:00am 5.3 1.9 3.8 90 0.6 W 11 15 6 8 1019.2 1019.2 0.0
31/05:30am 6.1 2.8 4.3 88 0.8 WNW 11 13 6 7 1019.1 1019.1 0.0
31/05:00am 6.7 2.3 4.7 87 0.9 W 17 19 9 10 1018.7 1018.7 0.0
31/04:30am 6.5 2.8 4.5 87 0.9 W 13 19 7 10 1018.4 1018.4 0.0
31/04:00am 6.9 3.2 4.6 85 1.0 W 13 20 7 11 1018.1 1018.1 0.0
31/03:30am 6.9 2.8 4.6 85 1.0 W 15 19 8 10 1017.9 1017.9 0.0
31/03:00am 7.7 3.3 4.5 80 1.4 WSW 17 24 9 13 1018.0 1018.0 0.0
31/02:30am 8.5 3.6 5.1 79 1.5 W 20 26 11 14 1017.6 1017.6 0.0
31/02:00am 8.8 6.0 5.2 78 1.6 NW 9 11 5 6 1017.8 1017.8 0.0
31/01:30am 9.1 5.9 5.3 77 1.7 WSW 11 17 6 9 1017.7 1017.7 0.0
31/01:00am 9.4 3.6 4.6 72 2.1 W 24 35 13 19 1017.0 1017.0 0.0
31/12:30am 10.3 2.3 3.8 64 2.9 W 35 48 19 26 1016.6 1016.6 0.0
31/12:00am 10.5 0.7 3.1 60 3.2 W 44 61 24 33 1016.2 1016.2 0.0
 
Date/Time
EST
Temp
°C
App
Temp
°C
Dew
Point
Rel
Hum
%
Delta-T
°C
Wind Press
QNH
hPa
Press
MSL
hPa
Rain
since 9 am
mm
Dir
 
Spd
km/h
Gust
km/h
Spd
kts
Gust
kts
30/11:38pm 10.9 1.8 3.9 62 3.1 W 41 61 22 33 1016.3 1016.3 0.0
30/11:30pm 11.3 5.1 4.5 63 3.1 W 26 56 14 30 1016.3 1016.3 0.0
30/11:29pm 11.3 5.6 4.7 64 3.0 W 24 56 13 30 1016.2 1016.2 0.0
30/11:00pm 11.0 6.0 3.8 61 3.2 WNW 19 24 10 13 1015.4 1015.4 0.0
30/10:30pm 11.2 4.1 3.5 59 3.4 NW 30 43 16 23 1014.6 1014.6 0.0
30/10:00pm 11.4 4.7 3.4 58 3.5 NW 28 37 15 20 1014.1 1014.1 0.0
30/09:30pm 11.9 4.6 2.6 53 4.0 NW 30 37 16 20 1013.7 1013.7 0.0
30/09:00pm 12.2 3.5 1.8 49 4.4 WNW 37 46 20 25 1013.2 1013.2 0.0
30/08:30pm 12.3 4.4 1.3 47 4.7 NW 32 44 17 24 1012.9 1012.9 0.0

Other Formats:

Comma delimited format used in spreadsheet applications
http://www.bom.gov.au/fwo/IDV60801/IDV60801.94907.axf

JavaScript Object Notation format (JSON) in row-major order
http://www.bom.gov.au/fwo/IDV60801/IDV60801.94907.json